Time;durP1;ratioP1;P1;durP2;ratioP2;P2;SDS_P1;SDS_P2;PMS_P1;PMS_P2;Temp;Humidity;BMP_temperature;BMP_pressure;BME280_temperature;BME280_humidity;BME280_pressure;Samples;Min_cycle;Max_cycle;Signal;HPM_P1;HPM_P2
2023/08/25 00:00:57;;;;;;;10.60;6.93;;;22.60;79.70;;;;;;5032689;28;20385;-68
2023/08/25 00:03:23;;;;;;;9.82;7.20;;;22.60;79.70;;;;;;5067343;28;20026;-68
2023/08/25 00:05:55;;;;;;;10.93;7.97;;;22.60;79.80;;;;;;5031109;28;20137;-68
2023/08/25 00:08:21;;;;;;;10.45;6.78;;;22.60;79.80;;;;;;5032520;28;20079;-68
2023/08/25 00:10:48;;;;;;;10.10;7.13;;;22.60;79.80;;;;;;5024352;28;20045;-69
2023/08/25 00:13:14;;;;;;;11.23;7.85;;;22.50;79.90;;;;;;5033210;28;20029;-68
2023/08/25 00:15:42;;;;;;;12.15;7.63;;;22.50;79.90;;;;;;5028840;28;20498;-68
2023/08/25 00:18:08;;;;;;;11.20;8.20;;;22.50;80.00;;;;;;5018588;28;20026;-68
2023/08/25 00:20:34;;;;;;;12.23;8.63;;;22.50;80.00;;;;;;5025480;28;20032;-68
2023/08/25 00:22:59;;;;;;;11.50;7.75;;;22.50;80.10;;;;;;5029358;28;20347;-69
2023/08/25 00:25:25;;;;;;;15.13;8.38;;;22.50;80.00;;;;;;5023497;28;20103;-68
2023/08/25 00:27:51;;;;;;;11.05;8.48;;;22.50;80.00;;;;;;5027360;28;20029;-68
2023/08/25 00:30:19;;;;;;;11.93;8.32;;;22.40;80.00;;;;;;5032143;28;20025;-68
2023/08/25 00:32:45;;;;;;;11.98;8.50;;;22.40;80.10;;;;;;5028863;28;20390;-68
2023/08/25 00:35:10;;;;;;;10.52;8.52;;;22.50;80.20;;;;;;5013020;28;20139;-68
2023/08/25 00:37:36;;;;;;;12.07;9.05;;;22.40;80.10;;;;;;5026984;28;20099;-68
2023/08/25 00:40:02;;;;;;;10.25;8.35;;;22.40;80.10;;;;;;5015211;28;20030;-68
2023/08/25 00:42:28;;;;;;;11.10;8.55;;;22.40;80.10;;;;;;5025457;28;20025;-68
2023/08/25 00:44:54;;;;;;;11.85;9.25;;;22.40;80.10;;;;;;5017127;28;20034;-68
2023/08/25 00:47:20;;;;;;;11.60;8.93;;;22.40;80.20;;;;;;5023879;28;20044;-68
2023/08/25 00:49:47;;;;;;;13.20;8.80;;;22.30;80.20;;;;;;5063327;28;20029;-68
2023/08/25 00:52:14;;;;;;;11.25;8.82;;;22.30;80.20;;;;;;5020715;28;20025;-68
2023/08/25 00:54:40;;;;;;;11.23;9.10;;;22.30;80.20;;;;;;5033550;28;20022;-68
2023/08/25 00:57:06;;;;;;;11.32;8.65;;;22.30;80.20;;;;;;5024334;28;20044;-68
2023/08/25 00:59:33;;;;;;;12.15;9.70;;;22.30;80.30;;;;;;5031659;28;20520;-68
2023/08/25 01:02:00;;;;;;;13.40;9.90;;;22.30;80.30;;;;;;5024547;28;20017;-68
2023/08/25 01:04:25;;;;;;;12.30;9.90;;;22.30;80.30;;;;;;5033370;28;20355;-68
2023/08/25 01:06:51;;;;;;;12.57;10.00;;;22.30;80.40;;;;;;5018851;28;20045;-68
2023/08/25 01:09:18;;;;;;;12.35;10.25;;;22.30;80.40;;;;;;5019690;28;20424;-68
2023/08/25 01:12:07;;;;;;;11.75;9.52;;;22.20;80.30;;;;;;5024044;28;20124;-68
2023/08/25 01:14:42;;;;;;;12.90;10.18;;;22.30;80.30;;;;;;5032062;28;20095;-68
2023/08/25 01:17:28;;;;;;;12.77;9.60;;;22.20;80.30;;;;;;5021569;28;20052;-68
2023/08/25 01:20:06;;;;;;;12.77;9.65;;;22.20;80.40;;;;;;5060573;28;20055;-68
2023/08/25 01:22:52;;;;;;;11.55;9.75;;;22.20;81.10;;;;;;5023976;28;20032;-68
2023/08/25 01:25:29;;;;;;;13.80;10.80;;;22.20;80.40;;;;;;5034368;28;20370;-68
2023/08/25 01:27:56;;;;;;;13.98;10.65;;;22.10;80.40;;;;;;5029815;28;20036;-68
2023/08/25 01:30:23;;;;;;;12.73;10.77;;;22.10;80.40;;;;;;5034522;28;20441;-68
2023/08/25 01:32:56;;;;;;;13.48;11.07;;;22.20;80.50;;;;;;5033202;28;20037;-68
2023/08/25 01:35:52;;;;;;;13.52;10.90;;;22.20;80.50;;;;;;5031249;28;20389;-68
2023/08/25 01:38:27;;;;;;;13.45;10.68;;;22.20;80.50;;;;;;5012260;28;20034;-68
2023/08/25 01:41:18;;;;;;;14.30;11.10;;;22.20;80.60;;;;;;5027536;28;20105;-68
2023/08/25 01:43:48;;;;;;;13.55;11.63;;;22.10;80.60;;;;;;5026762;28;20036;-68
2023/08/25 01:46:17;;;;;;;13.10;11.45;;;22.10;80.60;;;;;;5029116;28;20066;-68
2023/08/25 01:48:49;;;;;;;12.98;10.73;;;22.10;80.70;;;;;;5031691;28;20480;-68
2023/08/25 01:51:16;;;;;;;13.55;11.88;;;22.10;80.70;;;;;;5032014;28;20022;-68
2023/08/25 01:53:43;;;;;;;13.55;12.10;;;22.10;80.80;;;;;;5011528;28;20021;-68
2023/08/25 01:56:09;;;;;;;14.23;12.20;;;22.20;80.90;;;;;;5033814;28;20029;-68
2023/08/25 01:58:35;;;;;;;15.40;12.65;;;22.20;80.90;;;;;;5027111;28;20073;-68
2023/08/25 02:01:01;;;;;;;14.25;11.68;;;22.20;80.90;;;;;;5030191;28;20018;-68
2023/08/25 02:03:27;;;;;;;15.25;12.82;;;22.20;81.00;;;;;;5029256;28;20091;-68
2023/08/25 02:05:53;;;;;;;14.23;12.70;;;22.20;81.10;;;;;;5032608;28;20041;-68
2023/08/25 02:08:18;;;;;;;13.77;11.60;;;22.20;81.10;;;;;;5027853;28;20050;-68
2023/08/25 02:10:44;;;;;;;14.65;12.43;;;22.20;81.20;;;;;;5032206;28;20083;-68
2023/08/25 02:13:10;;;;;;;15.23;12.65;;;22.20;81.30;;;;;;5024110;28;20021;-68
2023/08/25 02:15:36;;;;;;;16.73;13.10;;;22.20;81.30;;;;;;5033678;28;20069;-68
2023/08/25 02:18:02;;;;;;;14.20;12.45;;;22.20;81.30;;;;;;5009425;28;20022;-68
2023/08/25 02:20:28;;;;;;;16.33;12.98;;;22.20;81.30;;;;;;5016305;28;20025;-68
2023/08/25 02:22:54;;;;;;;16.77;13.55;;;22.20;81.40;;;;;;5023589;28;20482;-68
2023/08/25 02:25:19;;;;;;;14.98;13.07;;;22.20;81.40;;;;;;5032803;28;20032;-68
2023/08/25 02:27:45;;;;;;;16.70;13.95;;;22.20;81.40;;;;;;5032882;28;20320;-68
2023/08/25 02:30:13;;;;;;;16.95;13.50;;;22.20;81.50;;;;;;5032234;28;20385;-68
2023/08/25 02:32:39;;;;;;;16.77;14.02;;;22.30;81.50;;;;;;5010884;28;20026;-68
2023/08/25 02:35:05;;;;;;;15.93;14.00;;;22.30;81.60;;;;;;5034092;28;20026;-68
2023/08/25 02:37:33;;;;;;;15.70;13.85;;;22.30;81.60;;;;;;5031123;28;20037;-68
2023/08/25 02:39:59;;;;;;;15.77;12.88;;;22.30;81.60;;;;;;5037015;28;20022;-68
2023/08/25 02:42:25;;;;;;;17.08;13.38;;;22.20;81.60;;;;;;5033552;28;20029;-68
2023/08/25 02:44:51;;;;;;;18.70;14.98;;;22.30;81.70;;;;;;5031645;28;20025;-68
2023/08/25 02:47:17;;;;;;;15.32;13.43;;;22.30;81.80;;;;;;5037641;28;20029;-68
2023/08/25 02:49:43;;;;;;;16.73;13.43;;;22.30;81.80;;;;;;5025411;28;20029;-68
2023/08/25 02:52:08;;;;;;;15.13;13.40;;;22.30;81.80;;;;;;5029679;28;20358;-68
2023/08/25 02:54:34;;;;;;;18.38;14.98;;;22.30;81.80;;;;;;5023437;28;20030;-68
2023/08/25 02:57:00;;;;;;;18.67;14.90;;;22.30;81.80;;;;;;5020492;28;20044;-68
2023/08/25 02:59:25;;;;;;;18.27;15.15;;;22.30;81.90;;;;;;5016829;28;20108;-68
2023/08/25 03:01:51;;;;;;;16.33;13.98;;;22.30;81.90;;;;;;5019063;28;20131;-68
2023/08/25 03:04:17;;;;;;;16.40;14.30;;;22.30;81.90;;;;;;5007099;28;20053;-68
2023/08/25 03:06:44;;;;;;;17.02;15.18;;;22.30;81.90;;;;;;5015641;28;20045;-68
2023/08/25 03:09:10;;;;;;;19.30;14.73;;;22.30;82.00;;;;;;5017798;28;20466;-68
2023/08/25 03:11:35;;;;;;;16.58;14.40;;;22.30;82.00;;;;;;5018453;28;20017;-68
2023/08/25 03:14:04;;;;;;;15.95;13.30;;;22.30;82.00;;;;;;5021327;28;20018;-68
2023/08/25 03:16:31;;;;;;;17.52;15.15;;;22.30;81.90;;;;;;5014789;28;20125;-68
2023/08/25 03:18:57;;;;;;;20.08;15.13;;;22.30;82.50;;;;;;5015606;28;20091;-68
2023/08/25 03:21:25;;;;;;;17.48;14.55;;;22.30;81.80;;;;;;5014063;28;20026;-68
2023/08/25 03:23:51;;;;;;;17.85;15.88;;;22.30;81.80;;;;;;5019777;28;20175;-68
2023/08/25 03:26:18;;;;;;;19.35;15.88;;;22.30;81.80;;;;;;5013738;28;20075;-68
2023/08/25 03:28:47;;;;;;;17.52;15.52;;;22.30;81.80;;;;;;5021494;28;20390;-68
2023/08/25 03:31:13;;;;;;;17.88;15.23;;;22.30;81.80;;;;;;5025553;28;20559;-68
2023/08/25 03:33:39;;;;;;;18.95;15.85;;;22.30;81.90;;;;;;5018106;28;20064;-68
2023/08/25 03:36:05;;;;;;;17.77;15.18;;;22.30;81.90;;;;;;5014540;28;20056;-68
2023/08/25 03:38:32;;;;;;;18.73;15.70;;;22.30;82.00;;;;;;4998794;28;20104;-68
2023/08/25 03:40:59;;;;;;;20.70;16.90;;;22.30;82.00;;;;;;5015452;28;20120;-68
2023/08/25 03:43:25;;;;;;;19.17;16.50;;;22.30;82.00;;;;;;5000908;28;20029;-68
2023/08/25 03:45:52;;;;;;;18.30;16.25;;;22.30;82.00;;;;;;5025706;28;20466;-68
2023/08/25 03:48:18;;;;;;;18.52;15.48;;;22.30;82.00;;;;;;5022765;28;20033;-68
2023/08/25 03:50:47;;;;;;;19.08;16.13;;;22.30;82.00;;;;;;5027884;28;20037;-68
2023/08/25 03:53:14;;;;;;;21.63;16.00;;;22.30;82.10;;;;;;5046404;28;20033;-68
2023/08/25 03:55:40;;;;;;;20.27;16.75;;;22.30;82.10;;;;;;5021924;28;20466;-68
2023/08/25 03:58:05;;;;;;;19.35;16.42;;;22.30;82.20;;;;;;5017237;28;20022;-68
2023/08/25 04:00:32;;;;;;;19.30;15.98;;;22.30;82.20;;;;;;5025092;28;20045;-68
2023/08/25 04:02:58;;;;;;;19.42;16.75;;;22.30;82.20;;;;;;5022176;28;20052;-68
2023/08/25 04:05:24;;;;;;;20.90;16.92;;;22.30;82.20;;;;;;5018455;28;20403;-68
2023/08/25 04:07:50;;;;;;;19.27;17.08;;;22.30;82.30;;;;;;5019676;28;20080;-68
2023/08/25 04:10:16;;;;;;;20.42;16.98;;;22.30;82.30;;;;;;5009317;28;20045;-68
2023/08/25 04:12:41;;;;;;;19.48;16.40;;;22.30;82.30;;;;;;5016593;28;20108;-68
2023/08/25 04:15:08;;;;;;;21.77;16.77;;;22.30;82.30;;;;;;5013976;28;20025;-68
2023/08/25 04:17:34;;;;;;;21.15;17.05;;;22.30;82.40;;;;;;5015026;28;20026;-68
2023/08/25 04:20:01;;;;;;;20.15;16.88;;;22.30;82.40;;;;;;5013707;28;20105;-68
2023/08/25 04:22:27;;;;;;;19.05;17.05;;;22.30;82.50;;;;;;4999036;28;20040;-68
2023/08/25 04:24:53;;;;;;;20.17;16.88;;;22.30;82.50;;;;;;5012442;28;20022;-68
2023/08/25 04:27:19;;;;;;;22.80;17.13;;;22.30;82.50;;;;;;5024226;28;20443;-68
2023/08/25 04:29:44;;;;;;;20.55;18.05;;;22.30;82.50;;;;;;5021261;28;20025;-68
2023/08/25 04:32:11;;;;;;;20.63;18.45;;;22.30;82.50;;;;;;5033522;28;20021;-68
2023/08/25 04:34:39;;;;;;;21.40;18.45;;;22.30;82.50;;;;;;5031192;28;20029;-68
2023/08/25 04:37:04;;;;;;;22.17;17.75;;;22.30;82.50;;;;;;5014317;28;20092;-68
2023/08/25 04:39:32;;;;;;;21.20;17.58;;;22.30;82.50;;;;;;5019787;28;20422;-68
2023/08/25 04:41:57;;;;;;;19.83;17.70;;;22.30;82.60;;;;;;4999541;28;20032;-68
2023/08/25 04:44:23;;;;;;;22.40;18.60;;;22.30;82.70;;;;;;5019297;28;20371;-68
2023/08/25 04:46:52;;;;;;;21.88;18.30;;;22.30;82.70;;;;;;5014787;28;20029;-68
2023/08/25 04:49:17;;;;;;;20.75;17.38;;;22.30;82.70;;;;;;5025015;28;20184;-68
2023/08/25 04:51:44;;;;;;;20.13;16.77;;;22.30;82.70;;;;;;5020954;28;20434;-68
2023/08/25 04:54:10;;;;;;;21.30;17.23;;;22.30;82.70;;;;;;5026380;28;20030;-68
2023/08/25 04:56:39;;;;;;;22.77;18.13;;;22.30;82.80;;;;;;5009362;28;20097;-68
2023/08/25 04:59:05;;;;;;;21.63;18.67;;;22.30;82.80;;;;;;5016649;28;20170;-68
2023/08/25 05:01:31;;;;;;;23.27;18.65;;;22.30;82.80;;;;;;5021270;28;20021;-68
2023/08/25 05:03:57;;;;;;;22.35;18.83;;;22.30;82.80;;;;;;5034026;28;20029;-69
2023/08/25 05:06:23;;;;;;;22.33;18.77;;;22.30;82.80;;;;;;5014045;28;20121;-69
2023/08/25 05:08:49;;;;;;;22.17;18.35;;;22.30;82.80;;;;;;5014302;28;20347;-69
2023/08/25 05:11:16;;;;;;;21.40;18.15;;;22.30;82.90;;;;;;5014414;28;20026;-68
2023/08/25 05:13:42;;;;;;;21.40;17.85;;;22.30;82.90;;;;;;5021520;28;20025;-69
2023/08/25 05:16:10;;;;;;;21.38;18.88;;;22.30;82.90;;;;;;4999369;28;20068;-69
2023/08/25 05:18:46;;;;;;;23.00;17.98;;;22.30;82.90;;;;;;5008634;28;20454;-69
2023/08/25 05:21:15;;;;;;;21.23;18.25;;;22.30;82.90;;;;;;5020252;28;20084;-69
2023/08/25 05:23:46;;;;;;;21.02;18.27;;;22.30;83.00;;;;;;5024493;28;20025;-68
2023/08/25 05:26:13;;;;;;;22.10;18.75;;;22.30;83.00;;;;;;5010963;28;20025;-69
2023/08/25 05:28:39;;;;;;;22.48;19.60;;;22.30;83.00;;;;;;5002970;28;20029;-69
2023/08/25 05:31:05;;;;;;;22.48;19.17;;;22.40;83.00;;;;;;5015602;28;20037;-69
2023/08/25 05:33:53;;;;;;;21.70;19.25;;;22.40;82.90;;;;;;5020776;28;20121;-69
2023/08/25 05:36:27;;;;;;;21.55;18.42;;;22.40;82.80;;;;;;5038464;28;20037;-69
2023/08/25 05:38:55;;;;;;;21.42;17.92;;;22.40;82.70;;;;;;5019423;28;20022;-69
2023/08/25 05:41:21;;;;;;;22.83;19.52;;;22.50;82.70;;;;;;5019585;28;20112;-69
2023/08/25 05:43:47;;;;;;;23.70;19.40;;;22.50;82.70;;;;;;5015518;28;20327;-68
2023/08/25 05:46:13;;;;;;;25.98;20.17;;;22.50;82.70;;;;;;5026850;28;20529;-68
2023/08/25 05:48:39;;;;;;;26.50;21.23;;;22.50;82.60;;;;;;5017178;28;20113;-68
2023/08/25 05:51:05;;;;;;;23.83;21.30;;;22.50;82.60;;;;;;5019931;28;20026;-69
2023/08/25 05:53:30;;;;;;;23.60;20.60;;;22.50;82.50;;;;;;5018631;28;20120;-69
2023/08/25 05:55:57;;;;;;;21.48;19.23;;;22.50;82.50;;;;;;5020184;28;20018;-69
2023/08/25 05:58:23;;;;;;;23.65;19.40;;;22.60;82.50;;;;;;5020617;28;20619;-69
2023/08/25 06:00:49;;;;;;;22.63;18.92;;;22.60;82.50;;;;;;5016750;28;20022;-69
2023/08/25 06:03:16;;;;;;;23.13;19.77;;;22.60;82.50;;;;;;5027602;28;20026;-69
2023/08/25 06:05:42;;;;;;;25.13;18.73;;;22.70;82.50;;;;;;5023269;28;20041;-70
2023/08/25 06:08:08;;;;;;;22.58;18.38;;;22.70;82.40;;;;;;5022241;28;20047;-70
2023/08/25 06:10:35;;;;;;;22.55;18.52;;;22.70;82.30;;;;;;5029537;28;20033;-70
2023/08/25 06:13:01;;;;;;;22.90;19.35;;;22.70;82.20;;;;;;5028035;28;20105;-70
2023/08/25 06:15:27;;;;;;;21.48;17.80;;;22.70;82.30;;;;;;5024021;28;20065;-70
2023/08/25 06:17:52;;;;;;;23.38;19.13;;;22.70;82.30;;;;;;5020130;28;20061;-70
2023/08/25 06:20:21;;;;;;;23.60;18.90;;;22.70;82.30;;;;;;5021919;28;20033;-69
2023/08/25 06:22:47;;;;;;;21.60;18.77;;;22.70;82.30;;;;;;5022297;28;20451;-70
2023/08/25 06:25:13;;;;;;;23.98;19.98;;;22.70;82.30;;;;;;5010024;28;20026;-69
2023/08/25 06:27:39;;;;;;;21.95;18.45;;;22.70;82.30;;;;;;5026744;28;20029;-69
2023/08/25 06:30:05;;;;;;;23.20;19.25;;;22.70;82.40;;;;;;5021215;28;20040;-69
2023/08/25 06:32:31;;;;;;;20.15;17.35;;;22.70;82.30;;;;;;5024674;28;20018;-70
2023/08/25 06:34:57;;;;;;;23.02;18.52;;;22.70;82.20;;;;;;5021044;28;20030;-70
2023/08/25 06:37:23;;;;;;;21.00;17.92;;;22.70;82.20;;;;;;5020272;28;20042;-70
2023/08/25 06:39:49;;;;;;;20.05;17.40;;;22.70;82.30;;;;;;5023326;28;20057;-70
2023/08/25 06:42:14;;;;;;;19.73;17.55;;;22.70;82.30;;;;;;5006621;28;20048;-70
2023/08/25 06:44:40;;;;;;;23.13;18.65;;;22.70;82.30;;;;;;5022617;28;20037;-70
2023/08/25 06:47:06;;;;;;;21.83;17.40;;;22.70;82.30;;;;;;5019704;28;20038;-71
2023/08/25 06:49:32;;;;;;;20.27;16.95;;;22.70;82.30;;;;;;5020004;28;20022;-70
2023/08/25 06:51:58;;;;;;;21.23;17.70;;;22.70;82.20;;;;;;5021316;28;20029;-70
2023/08/25 06:54:24;;;;;;;20.83;16.98;;;22.70;82.20;;;;;;5024917;28;20092;-70
2023/08/25 06:56:50;;;;;;;19.83;16.33;;;22.70;82.80;;;;;;5025126;28;20026;-66
2023/08/25 06:59:16;;;;;;;19.92;17.40;;;22.70;82.20;;;;;;5026209;28;20022;-67
2023/08/25 07:01:43;;;;;;;20.58;17.73;;;22.70;82.20;;;;;;5022866;28;20448;-68
2023/08/25 07:04:08;;;;;;;19.33;16.92;;;22.70;82.20;;;;;;5023620;28;20151;-68
2023/08/25 07:06:36;;;;;;;23.65;17.65;;;22.70;82.10;;;;;;5022225;28;20137;-67
2023/08/25 07:09:03;;;;;;;22.77;16.75;;;22.70;82.10;;;;;;5018690;28;20033;-67
2023/08/25 07:11:28;;;;;;;23.58;18.10;;;22.60;82.00;;;;;;5022096;28;20033;-67
2023/08/25 07:13:54;;;;;;;18.10;15.80;;;22.60;82.10;;;;;;5018022;28;20529;-67
2023/08/25 07:16:20;;;;;;;20.33;16.70;;;22.60;82.10;;;;;;5028245;28;20045;-66
2023/08/25 07:18:45;;;;;;;22.42;17.60;;;22.60;82.00;;;;;;5016407;28;20032;-67
2023/08/25 07:21:11;;;;;;;20.65;16.92;;;22.60;82.00;;;;;;5022120;28;20138;-66
2023/08/25 07:23:37;;;;;;;23.88;17.90;;;22.60;81.90;;;;;;5019039;28;20396;-67
2023/08/25 07:26:03;;;;;;;23.20;17.80;;;22.60;81.90;;;;;;5023946;28;20040;-67
2023/08/25 07:28:30;;;;;;;22.50;17.38;;;22.60;82.00;;;;;;5016446;28;20025;-66
2023/08/25 07:30:56;;;;;;;22.83;18.17;;;22.60;82.00;;;;;;5026504;28;20025;-66
2023/08/25 07:33:23;;;;;;;22.20;17.75;;;22.60;82.10;;;;;;5024652;28;20025;-67
2023/08/25 07:35:49;;;;;;;24.83;18.60;;;22.60;82.10;;;;;;5004224;28;20018;-66
2023/08/25 07:38:14;;;;;;;23.38;19.65;;;22.60;82.10;;;;;;5028150;28;20026;-66
2023/08/25 07:40:41;;;;;;;22.20;18.30;;;22.70;82.10;;;;;;5018244;28;20030;-65
2023/08/25 07:43:07;;;;;;;22.55;18.45;;;22.70;82.10;;;;;;5019929;28;20120;-68
2023/08/25 07:45:33;;;;;;;24.55;19.77;;;22.70;82.00;;;;;;5019522;28;20112;-68
2023/08/25 07:48:00;;;;;;;24.50;19.70;;;22.70;82.00;;;;;;5018399;28;20052;-68
2023/08/25 07:50:29;;;;;;;26.85;19.63;;;22.70;82.00;;;;;;5019267;28;20034;-68
2023/08/25 07:52:56;;;;;;;22.92;19.58;;;22.70;82.10;;;;;;5018785;28;20596;-68
2023/08/25 07:55:22;;;;;;;25.95;20.65;;;22.70;82.00;;;;;;5023040;28;20442;-68
2023/08/25 07:57:48;;;;;;;25.10;19.95;;;22.70;82.00;;;;;;5021555;28;20080;-68
2023/08/25 08:00:15;;;;;;;25.65;21.27;;;22.70;81.90;;;;;;5018541;28;20071;-69
2023/08/25 08:02:42;;;;;;;23.45;19.95;;;22.70;82.00;;;;;;5025753;28;20052;-68
2023/08/25 08:05:08;;;;;;;26.45;21.40;;;22.70;82.10;;;;;;5027467;28;20044;-68
2023/08/25 08:07:34;;;;;;;27.23;22.27;;;22.70;82.10;;;;;;5015911;28;20041;-68
2023/08/25 08:10:00;;;;;;;25.80;20.80;;;22.80;82.10;;;;;;5028803;28;20083;-69
2023/08/25 08:12:26;;;;;;;24.42;20.08;;;22.80;82.10;;;;;;5028021;28;20018;-68
2023/08/25 08:14:52;;;;;;;26.83;22.30;;;22.70;82.00;;;;;;5013406;28;20025;-68
2023/08/25 08:17:19;;;;;;;29.63;22.65;;;22.80;82.10;;;;;;5016739;28;20034;-68
2023/08/25 08:19:45;;;;;;;27.33;23.00;;;22.70;82.00;;;;;;5019810;28;20025;-68
2023/08/25 08:22:10;;;;;;;26.35;22.10;;;22.70;82.00;;;;;;5014728;28;20116;-68
2023/08/25 08:24:36;;;;;;;21.88;19.55;;;22.70;82.10;;;;;;5021477;28;20033;-68
2023/08/25 08:27:02;;;;;;;22.27;19.02;;;22.70;82.00;;;;;;5022444;28;20038;-67
2023/08/25 08:29:28;;;;;;;24.48;20.05;;;22.70;82.10;;;;;;5025312;28;20044;-68
2023/08/25 08:31:57;;;;;;;27.10;20.23;;;22.70;82.20;;;;;;5024277;28;20038;-68
2023/08/25 08:34:22;;;;;;;24.10;19.50;;;22.70;82.30;;;;;;5023974;28;20708;-67
2023/08/25 08:36:48;;;;;;;25.83;20.85;;;22.60;83.10;;;;;;5044224;28;20028;-67
2023/08/25 08:39:15;;;;;;;27.10;21.77;;;22.60;82.60;;;;;;5028595;28;20447;-67
2023/08/25 08:41:41;;;;;;;26.00;19.73;;;22.60;82.70;;;;;;5024468;28;20026;-68
2023/08/25 08:44:10;;;;;;;25.60;18.98;;;22.60;82.80;;;;;;5018300;28;21254;-67
2023/08/25 08:46:38;;;;;;;25.48;18.95;;;22.60;82.90;;;;;;5022013;28;20446;-68
2023/08/25 08:49:04;;;;;;;24.33;19.15;;;22.60;82.90;;;;;;5026326;28;20115;-67
2023/08/25 08:51:30;;;;;;;20.95;16.98;;;22.70;83.10;;;;;;5023388;28;20061;-68
2023/08/25 08:53:58;;;;;;;21.35;17.77;;;22.60;83.00;;;;;;5021274;28;20351;-67
2023/08/25 08:56:24;;;;;;;22.88;18.67;;;22.60;83.10;;;;;;5028997;28;20033;-68
2023/08/25 08:58:50;;;;;;;23.20;18.70;;;22.60;83.00;;;;;;5022111;28;20033;-67
2023/08/25 09:01:17;;;;;;;24.35;19.27;;;22.50;83.10;;;;;;5024877;28;20036;-67
2023/08/25 09:03:47;;;;;;;23.45;19.23;;;22.50;83.20;;;;;;5023223;28;20026;-67
2023/08/25 09:06:13;;;;;;;21.23;17.60;;;22.50;83.20;;;;;;5018127;28;20447;-68
2023/08/25 09:08:39;;;;;;;21.27;17.73;;;22.50;83.20;;;;;;5018960;28;20033;-67
2023/08/25 09:11:05;;;;;;;20.45;15.98;;;22.50;83.10;;;;;;5018240;28;20038;-68
2023/08/25 09:13:35;;;;;;;20.48;16.60;;;22.40;83.00;;;;;;5019311;28;20087;-67
2023/08/25 09:16:22;;;;;;;18.95;15.60;;;22.50;83.00;;;;;;5022716;28;20038;-67
2023/08/25 09:18:48;;;;;;;20.60;16.05;;;22.50;82.80;;;;;;5021322;28;20062;-68
2023/08/25 09:21:21;;;;;;;17.52;14.15;;;22.50;82.90;;;;;;5029158;28;20031;-69
2023/08/25 09:23:59;;;;;;;18.20;14.32;;;22.50;82.80;;;;;;5014384;28;20079;-68
2023/08/25 09:26:26;;;;;;;18.92;14.30;;;22.50;82.50;;;;;;5030713;28;20083;-68
2023/08/25 09:28:57;;;;;;;16.40;13.25;;;22.50;82.40;;;;;;5033626;28;20332;-68
2023/08/25 09:31:25;;;;;;;18.40;13.07;;;22.50;82.30;;;;;;5001021;28;20037;-68
2023/08/25 09:33:58;;;;;;;16.15;12.50;;;22.50;82.30;;;;;;5019126;28;20091;-67
2023/08/25 09:36:24;;;;;;;14.73;11.68;;;22.50;82.40;;;;;;5017164;28;20026;-68
2023/08/25 09:38:50;;;;;;;14.88;11.02;;;22.50;82.30;;;;;;5019015;28;20485;-67
2023/08/25 09:41:26;;;;;;;14.15;10.88;;;22.50;82.30;;;;;;5016155;28;20033;-67
2023/08/25 09:43:58;;;;;;;13.63;9.85;;;22.50;82.00;;;;;;5020106;28;20057;-68
2023/08/25 09:46:30;;;;;;;12.75;10.23;;;22.40;82.00;;;;;;5025591;28;20456;-68
2023/08/25 09:49:06;;;;;;;12.43;9.05;;;22.40;82.20;;;;;;5027815;28;20041;-68
2023/08/25 09:51:42;;;;;;;12.52;9.43;;;22.40;82.90;;;;;;5018543;28;20034;-68
2023/08/25 09:54:12;;;;;;;11.50;8.45;;;22.40;82.00;;;;;;5028380;28;20041;-67
2023/08/25 09:56:39;;;;;;;10.43;8.68;;;22.40;82.00;;;;;;5027248;28;20417;-68
2023/08/25 09:59:07;;;;;;;10.75;7.75;;;22.40;82.00;;;;;;5021725;28;20074;-67
2023/08/25 10:01:42;;;;;;;10.43;7.32;;;22.40;81.80;;;;;;5019673;28;20054;-66
2023/08/25 10:04:09;;;;;;;11.38;7.85;;;22.40;81.80;;;;;;5020336;28;20026;-67
2023/08/25 10:06:39;;;;;;;10.63;7.28;;;22.40;81.80;;;;;;5029191;28;20477;-66
2023/08/25 10:09:06;;;;;;;9.15;6.78;;;22.40;81.80;;;;;;5055238;28;20041;-66
2023/08/25 10:11:40;;;;;;;10.75;6.75;;;22.50;82.30;;;;;;5022503;28;20033;-66
2023/08/25 10:14:10;;;;;;;8.88;6.20;;;22.50;81.50;;;;;;5024684;28;20413;-66
2023/08/25 10:17:00;;;;;;;10.70;6.43;;;22.40;81.30;;;;;;5026561;28;20141;-67
2023/08/25 10:19:29;;;;;;;8.38;6.55;;;22.40;81.20;;;;;;5030989;28;20362;-67
2023/08/25 10:21:55;;;;;;;10.13;6.32;;;22.40;81.30;;;;;;5027384;28;20037;-67
2023/08/25 10:24:23;;;;;;;9.07;6.57;;;22.40;81.40;;;;;;5020122;28;20078;-65
2023/08/25 10:26:52;;;;;;;11.60;7.05;;;22.40;81.50;;;;;;5017842;28;20423;-67
2023/08/25 10:29:20;;;;;;;10.88;7.55;;;22.40;81.70;;;;;;5024682;28;20037;-66
2023/08/25 10:31:54;;;;;;;10.80;6.60;;;22.60;81.90;;;;;;5019951;28;20025;-67
2023/08/25 10:34:42;;;;;;;9.77;6.85;;;23.00;81.20;;;;;;5024066;28;20021;-67
2023/08/25 10:37:10;;;;;;;9.25;6.22;;;23.10;80.40;;;;;;5020601;28;20021;-68
2023/08/25 10:39:48;;;;;;;8.40;5.93;;;23.20;80.40;;;;;;5022177;28;20346;-67
2023/08/25 10:42:35;;;;;;;7.82;4.93;;;23.30;80.30;;;;;;5035817;28;20048;-68
2023/08/25 10:45:06;;;;;;;7.13;4.35;;;23.60;79.90;;;;;;5051754;28;20121;-68
2023/08/25 10:47:38;;;;;;;6.80;4.20;;;23.80;79.30;;;;;;5022520;28;20045;-68
2023/08/25 10:50:04;;;;;;;6.25;3.55;;;24.00;79.00;;;;;;5023426;28;20088;-68
2023/08/25 10:52:31;;;;;;;5.15;2.88;;;24.00;78.40;;;;;;5022055;28;20494;-68
2023/08/25 10:54:57;;;;;;;7.03;3.40;;;24.10;78.50;;;;;;5006698;28;20025;-69
2023/08/25 10:57:31;;;;;;;6.65;3.95;;;24.00;78.80;;;;;;5048844;28;20469;-69
2023/08/25 11:00:29;;;;;;;6.82;4.25;;;24.00;79.00;;;;;;5005187;28;20025;-69
2023/08/25 11:02:56;;;;;;;6.47;3.70;;;24.00;78.70;;;;;;5021962;28;20172;-67
2023/08/25 11:05:33;;;;;;;5.90;3.40;;;24.00;78.80;;;;;;5035991;28;20073;-67
2023/08/25 11:08:26;;;;;;;5.88;3.25;;;24.00;78.80;;;;;;5027307;28;20041;-67
2023/08/25 11:11:13;;;;;;;7.15;4.22;;;23.90;78.90;;;;;;5022547;28;20033;-67
2023/08/25 11:13:40;;;;;;;7.85;4.32;;;23.80;79.30;;;;;;5044657;28;20057;-67
2023/08/25 11:16:10;;;;;;;7.80;4.75;;;23.70;79.30;;;;;;5002053;28;20034;-67
2023/08/25 11:18:42;;;;;;;9.05;5.35;;;23.60;79.20;;;;;;5008198;28;20013;-67
2023/08/25 11:21:07;;;;;;;;;;;23.50;79.20;;;;;;5021841;28;20116;-67
2023/08/25 11:23:44;;;;;;;9.45;5.47;;;23.40;79.40;;;;;;5023076;28;20044;-67
2023/08/25 11:26:17;;;;;;;8.05;5.80;;;23.30;79.60;;;;;;5028001;28;20080;-67
2023/08/25 11:28:47;;;;;;;10.50;7.03;;;23.30;79.70;;;;;;5025887;28;20113;-67
2023/08/25 11:31:13;;;;;;;12.02;7.20;;;23.20;79.60;;;;;;5018250;28;20046;-67
2023/08/25 11:33:39;;;;;;;9.57;7.38;;;23.20;79.60;;;;;;5020012;28;20038;-67
2023/08/25 11:36:05;;;;;;;10.48;6.93;;;23.20;79.60;;;;;;5016557;28;20030;-70
2023/08/25 11:38:31;;;;;;;10.10;7.70;;;23.20;79.70;;;;;;5010430;28;20048;-67
2023/08/25 11:40:58;;;;;;;11.30;7.28;;;23.20;79.60;;;;;;5025185;28;20045;-67
2023/08/25 11:43:32;;;;;;;9.07;6.97;;;23.20;79.50;;;;;;5016746;28;20029;-68
2023/08/25 11:45:59;;;;;;;11.48;7.57;;;23.20;79.60;;;;;;5018428;28;20481;-68
2023/08/25 11:48:25;;;;;;;12.95;8.40;;;23.30;79.80;;;;;;5053939;28;20112;-68
2023/08/25 11:50:51;;;;;;;10.65;8.13;;;23.30;79.70;;;;;;5018009;28;20121;-68
2023/08/25 11:53:17;;;;;;;10.77;8.32;;;23.30;79.70;;;;;;5015842;28;20027;-68
2023/08/25 11:56:00;;;;;;;10.52;8.27;;;23.20;79.90;;;;;;5019433;28;20033;-68
2023/08/25 11:58:33;;;;;;;11.02;8.02;;;23.20;80.00;;;;;;5032525;28;20035;-68
2023/08/25 12:01:10;;;;;;;12.38;8.82;;;23.30;80.00;;;;;;5020505;28;20030;-68
2023/08/25 12:03:38;;;;;;;12.52;8.50;;;23.30;79.90;;;;;;5019439;28;20029;-68
2023/08/25 12:06:08;;;;;;;10.88;8.10;;;23.20;80.00;;;;;;5026373;28;20458;-68
2023/08/25 12:08:34;;;;;;;9.98;8.30;;;23.20;80.00;;;;;;5029617;28;20546;-68
2023/08/25 12:11:01;;;;;;;11.15;8.75;;;23.10;79.90;;;;;;5016978;28;20463;-68
2023/08/25 12:13:29;;;;;;;11.70;9.45;;;23.10;80.10;;;;;;5017703;28;20694;-68
2023/08/25 12:15:56;;;;;;;10.75;8.80;;;23.00;80.10;;;;;;5018159;28;20025;-68
2023/08/25 12:18:22;;;;;;;11.55;9.00;;;23.00;80.10;;;;;;5021415;28;20045;-68
2023/08/25 12:20:49;;;;;;;11.38;9.40;;;23.00;80.20;;;;;;5007194;28;20025;-68
2023/08/25 12:23:15;;;;;;;12.18;10.27;;;23.00;80.20;;;;;;5026375;28;20025;-68
2023/08/25 12:25:42;;;;;;;14.55;10.30;;;23.00;80.10;;;;;;5019932;28;20033;-68
2023/08/25 12:28:09;;;;;;;14.82;10.45;;;23.00;80.20;;;;;;5029509;28;20398;-72
2023/08/25 12:30:34;;;;;;;12.85;10.25;;;23.00;80.10;;;;;;5017787;28;20112;-67
2023/08/25 12:33:00;;;;;;;12.65;11.07;;;23.00;80.10;;;;;;5017905;28;20124;-68
2023/08/25 12:35:26;;;;;;;12.93;10.73;;;23.00;80.20;;;;;;5021433;28;20025;-68